sensor_id;sensor_type;location;lat;lon;timestamp;pressure;altitude;pressure_sealevel;temperature;humidity
22333;BME280;11334;36.986;-121.936;2023-06-22T00:00:56;101023.72;;;32.94;29.80
22333;BME280;11334;36.986;-121.936;2023-06-22T00:03:23;101025.75;;;33.07;29.19
22333;BME280;11334;36.986;-121.936;2023-06-22T00:05:53;101020.56;;;33.24;29.01
22333;BME280;11334;36.986;-121.936;2023-06-22T00:08:19;101013.41;;;33.23;29.27
22333;BME280;11334;36.986;-121.936;2023-06-22T00:10:46;101008.94;;;33.09;28.88
22333;BME280;11334;36.986;-121.936;2023-06-22T00:13:13;101007.09;;;33.41;29.13
22333;BME280;11334;36.986;-121.936;2023-06-22T00:15:41;100997.59;;;33.33;29.12
22333;BME280;11334;36.986;-121.936;2023-06-22T00:18:08;101008.28;;;33.53;29.18
22333;BME280;11334;36.986;-121.936;2023-06-22T00:20:35;101002.47;;;33.54;29.21
22333;BME280;11334;36.986;-121.936;2023-06-22T00:23:06;100997.63;;;33.83;28.94
22333;BME280;11334;36.986;-121.936;2023-06-22T00:25:35;101002.34;;;34.09;28.89
22333;BME280;11334;36.986;-121.936;2023-06-22T00:28:02;100999.78;;;33.86;29.30
22333;BME280;11334;36.986;-121.936;2023-06-22T00:30:30;100991.09;;;33.92;29.07
22333;BME280;11334;36.986;-121.936;2023-06-22T00:32:57;100995.19;;;33.95;29.26
22333;BME280;11334;36.986;-121.936;2023-06-22T00:35:25;100995.19;;;33.95;29.38
22333;BME280;11334;36.986;-121.936;2023-06-22T00:37:56;100990.44;;;34.13;29.08
22333;BME280;11334;36.986;-121.936;2023-06-22T00:40:27;100983.09;;;34.09;28.42
22333;BME280;11334;36.986;-121.936;2023-06-22T00:42:54;100979.28;;;34.05;28.87
22333;BME280;11334;36.986;-121.936;2023-06-22T00:45:22;100983.00;;;34.14;28.90
22333;BME280;11334;36.986;-121.936;2023-06-22T00:47:56;100983.38;;;34.07;28.98
22333;BME280;11334;36.986;-121.936;2023-06-22T00:50:25;100989.16;;;33.79;29.21
22333;BME280;11334;36.986;-121.936;2023-06-22T00:52:54;100976.25;;;33.93;28.88
22333;BME280;11334;36.986;-121.936;2023-06-22T00:55:25;100977.63;;;33.46;29.63
22333;BME280;11334;36.986;-121.936;2023-06-22T00:57:54;100979.69;;;33.36;29.70
22333;BME280;11334;36.986;-121.936;2023-06-22T01:00:23;100976.22;;;33.30;29.64
22333;BME280;11334;36.986;-121.936;2023-06-22T01:02:51;100970.47;;;32.90;30.32
22333;BME280;11334;36.986;-121.936;2023-06-22T01:05:21;100973.97;;;32.78;30.92
22333;BME280;11334;36.986;-121.936;2023-06-22T01:10:50;100980.41;;;32.86;30.69
22333;BME280;11334;36.986;-121.936;2023-06-22T01:13:41;100969.28;;;32.78;31.01
22333;BME280;11334;36.986;-121.936;2023-06-22T01:18:42;100969.13;;;32.46;31.71
22333;BME280;11334;36.986;-121.936;2023-06-22T01:21:12;100967.75;;;32.21;31.33
22333;BME280;11334;36.986;-121.936;2023-06-22T01:24:01;100958.13;;;32.00;31.82
22333;BME280;11334;36.986;-121.936;2023-06-22T01:29:04;100972.72;;;31.63;32.93
22333;BME280;11334;36.986;-121.936;2023-06-22T01:31:34;100972.50;;;31.21;33.30
22333;BME280;11334;36.986;-121.936;2023-06-22T01:34:05;100972.50;;;31.26;33.17
22333;BME280;11334;36.986;-121.936;2023-06-22T01:36:33;100974.44;;;31.21;33.27
22333;BME280;11334;36.986;-121.936;2023-06-22T01:39:00;100971.81;;;31.01;33.59
22333;BME280;11334;36.986;-121.936;2023-06-22T01:41:32;100974.00;;;31.04;33.98
22333;BME280;11334;36.986;-121.936;2023-06-22T01:43:59;100988.69;;;30.65;34.83
22333;BME280;11334;36.986;-121.936;2023-06-22T01:46:27;100984.84;;;30.66;34.76
22333;BME280;11334;36.986;-121.936;2023-06-22T01:48:53;100981.06;;;30.57;33.65
22333;BME280;11334;36.986;-121.936;2023-06-22T01:51:20;100983.56;;;30.44;33.55
22333;BME280;11334;36.986;-121.936;2023-06-22T01:53:46;100986.09;;;30.36;34.18
22333;BME280;11334;36.986;-121.936;2023-06-22T01:56:16;100985.88;;;30.22;33.80
22333;BME280;11334;36.986;-121.936;2023-06-22T01:59:09;100986.16;;;29.91;34.80
22333;BME280;11334;36.986;-121.936;2023-06-22T02:01:39;100979.63;;;29.88;34.30
22333;BME280;11334;36.986;-121.936;2023-06-22T02:04:13;100983.97;;;29.59;35.01
22333;BME280;11334;36.986;-121.936;2023-06-22T02:06:43;100989.19;;;29.56;35.66
22333;BME280;11334;36.986;-121.936;2023-06-22T02:09:16;100985.63;;;29.50;35.66
22333;BME280;11334;36.986;-121.936;2023-06-22T02:11:45;100987.28;;;29.36;35.20
22333;BME280;11334;36.986;-121.936;2023-06-22T02:14:13;100981.25;;;29.34;35.37
22333;BME280;11334;36.986;-121.936;2023-06-22T02:16:40;100982.63;;;29.32;35.53
22333;BME280;11334;36.986;-121.936;2023-06-22T02:19:07;100986.44;;;29.26;35.89
22333;BME280;11334;36.986;-121.936;2023-06-22T02:21:34;100964.53;;;29.01;36.03
22333;BME280;11334;36.986;-121.936;2023-06-22T02:24:00;100986.88;;;28.84;35.98
22333;BME280;11334;36.986;-121.936;2023-06-22T02:26:27;100977.56;;;28.70;36.12
22333;BME280;11334;36.986;-121.936;2023-06-22T02:28:53;100975.53;;;28.51;36.32
22333;BME280;11334;36.986;-121.936;2023-06-22T02:31:19;100980.38;;;27.93;37.33
22333;BME280;11334;36.986;-121.936;2023-06-22T02:33:46;100981.56;;;27.66;37.85
22333;BME280;11334;36.986;-121.936;2023-06-22T02:36:14;100985.34;;;27.34;38.51
22333;BME280;11334;36.986;-121.936;2023-06-22T02:38:44;100995.38;;;27.02;39.40
22333;BME280;11334;36.986;-121.936;2023-06-22T02:41:16;100997.88;;;26.62;40.02
22333;BME280;11334;36.986;-121.936;2023-06-22T02:43:45;101009.28;;;26.21;40.58
22333;BME280;11334;36.986;-121.936;2023-06-22T02:46:13;101007.03;;;25.97;41.31
22333;BME280;11334;36.986;-121.936;2023-06-22T02:48:40;101016.81;;;25.82;41.30
22333;BME280;11334;36.986;-121.936;2023-06-22T02:51:06;101023.16;;;25.55;42.11
22333;BME280;11334;36.986;-121.936;2023-06-22T02:53:33;101011.00;;;25.13;42.95
22333;BME280;11334;36.986;-121.936;2023-06-22T02:55:59;101030.94;;;24.91;43.84
22333;BME280;11334;36.986;-121.936;2023-06-22T02:58:27;101036.72;;;24.72;44.06
22333;BME280;11334;36.986;-121.936;2023-06-22T03:00:53;101044.31;;;24.59;44.35
22333;BME280;11334;36.986;-121.936;2023-06-22T03:03:19;101045.91;;;24.32;45.03
22333;BME280;11334;36.986;-121.936;2023-06-22T03:05:46;101051.75;;;24.07;46.21
22333;BME280;11334;36.986;-121.936;2023-06-22T03:08:12;101045.75;;;23.93;46.28
22333;BME280;11334;36.986;-121.936;2023-06-22T03:10:38;101054.72;;;23.82;46.74
22333;BME280;11334;36.986;-121.936;2023-06-22T03:13:04;101045.59;;;23.54;47.54
22333;BME280;11334;36.986;-121.936;2023-06-22T03:15:30;101044.00;;;23.36;47.64
22333;BME280;11334;36.986;-121.936;2023-06-22T03:17:58;101047.75;;;23.23;48.08
22333;BME280;11334;36.986;-121.936;2023-06-22T03:20:24;101038.63;;;23.07;48.91
22333;BME280;11334;36.986;-121.936;2023-06-22T03:22:52;101045.38;;;22.98;48.89
22333;BME280;11334;36.986;-121.936;2023-06-22T03:25:18;101052.84;;;22.84;49.15
22333;BME280;11334;36.986;-121.936;2023-06-22T03:27:45;101056.69;;;22.59;50.50
22333;BME280;11334;36.986;-121.936;2023-06-22T03:30:12;101054.81;;;22.42;51.15
22333;BME280;11334;36.986;-121.936;2023-06-22T03:32:38;101053.84;;;22.37;51.13
22333;BME280;11334;36.986;-121.936;2023-06-22T03:35:05;101053.38;;;22.22;51.58
22333;BME280;11334;36.986;-121.936;2023-06-22T03:37:32;101056.63;;;22.06;52.07
22333;BME280;11334;36.986;-121.936;2023-06-22T03:39:58;101047.31;;;21.85;52.96
22333;BME280;11334;36.986;-121.936;2023-06-22T03:42:24;101060.47;;;21.75;53.46
22333;BME280;11334;36.986;-121.936;2023-06-22T03:44:50;101052.41;;;21.68;53.55
22333;BME280;11334;36.986;-121.936;2023-06-22T03:47:17;101053.97;;;21.58;54.03
22333;BME280;11334;36.986;-121.936;2023-06-22T03:49:43;101048.88;;;21.44;54.31
22333;BME280;11334;36.986;-121.936;2023-06-22T03:52:09;101048.94;;;21.37;54.65
22333;BME280;11334;36.986;-121.936;2023-06-22T03:54:36;101048.16;;;21.24;55.37
22333;BME280;11334;36.986;-121.936;2023-06-22T03:57:03;101048.84;;;21.13;55.73
22333;BME280;11334;36.986;-121.936;2023-06-22T03:59:29;101050.75;;;21.06;55.90
22333;BME280;11334;36.986;-121.936;2023-06-22T04:01:55;101057.84;;;21.01;55.84
22333;BME280;11334;36.986;-121.936;2023-06-22T04:04:21;101061.47;;;20.82;56.81
22333;BME280;11334;36.986;-121.936;2023-06-22T04:06:47;101062.13;;;20.71;57.31
22333;BME280;11334;36.986;-121.936;2023-06-22T04:09:14;101062.97;;;20.65;57.51
22333;BME280;11334;36.986;-121.936;2023-06-22T04:11:40;101063.81;;;20.53;58.06
22333;BME280;11334;36.986;-121.936;2023-06-22T04:14:06;101049.97;;;20.43;58.29
22333;BME280;11334;36.986;-121.936;2023-06-22T04:16:33;101058.47;;;20.40;58.43
22333;BME280;11334;36.986;-121.936;2023-06-22T04:18:59;101074.44;;;20.35;58.67
22333;BME280;11334;36.986;-121.936;2023-06-22T04:21:25;101072.59;;;20.23;58.82
22333;BME280;11334;36.986;-121.936;2023-06-22T04:23:51;101074.91;;;20.20;59.22
22333;BME280;11334;36.986;-121.936;2023-06-22T04:26:18;101079.06;;;20.09;59.32
22333;BME280;11334;36.986;-121.936;2023-06-22T04:28:47;101081.75;;;20.09;59.75
22333;BME280;11334;36.986;-121.936;2023-06-22T04:31:18;101080.94;;;19.90;60.74
22333;BME280;11334;36.986;-121.936;2023-06-22T04:33:47;101092.53;;;19.90;60.58
22333;BME280;11334;36.986;-121.936;2023-06-22T04:36:13;101087.97;;;19.78;61.08
22333;BME280;11334;36.986;-121.936;2023-06-22T04:38:40;101091.06;;;19.75;61.52
22333;BME280;11334;36.986;-121.936;2023-06-22T04:41:08;101099.56;;;19.72;61.55
22333;BME280;11334;36.986;-121.936;2023-06-22T04:43:49;101093.09;;;19.66;61.84
22333;BME280;11334;36.986;-121.936;2023-06-22T04:46:19;101088.97;;;19.51;62.05
22333;BME280;11334;36.986;-121.936;2023-06-22T04:48:46;101101.59;;;19.51;62.16
22333;BME280;11334;36.986;-121.936;2023-06-22T04:51:12;101097.25;;;19.50;62.15
22333;BME280;11334;36.986;-121.936;2023-06-22T04:53:38;101092.06;;;19.35;62.76
22333;BME280;11334;36.986;-121.936;2023-06-22T04:56:07;101097.44;;;19.35;62.32
22333;BME280;11334;36.986;-121.936;2023-06-22T04:58:33;101099.09;;;19.30;62.80
22333;BME280;11334;36.986;-121.936;2023-06-22T05:01:00;101099.69;;;19.32;62.75
22333;BME280;11334;36.986;-121.936;2023-06-22T05:03:26;101090.56;;;19.14;62.99
22333;BME280;11334;36.986;-121.936;2023-06-22T05:05:52;101106.25;;;19.17;63.25
22333;BME280;11334;36.986;-121.936;2023-06-22T05:08:19;101099.44;;;19.14;63.10
22333;BME280;11334;36.986;-121.936;2023-06-22T05:10:45;101101.28;;;19.07;63.40
22333;BME280;11334;36.986;-121.936;2023-06-22T05:13:11;101099.41;;;19.01;63.54
22333;BME280;11334;36.986;-121.936;2023-06-22T05:15:38;101104.31;;;18.92;63.91
22333;BME280;11334;36.986;-121.936;2023-06-22T05:18:06;101102.47;;;18.92;63.88
22333;BME280;11334;36.986;-121.936;2023-06-22T05:20:32;101098.00;;;18.72;64.62
22333;BME280;11334;36.986;-121.936;2023-06-22T05:23:01;101106.31;;;18.77;64.29
22333;BME280;11334;36.986;-121.936;2023-06-22T05:25:28;101099.69;;;18.73;64.58
22333;BME280;11334;36.986;-121.936;2023-06-22T05:27:55;101102.75;;;18.64;64.84
22333;BME280;11334;36.986;-121.936;2023-06-22T05:30:21;101094.06;;;18.62;65.38
22333;BME280;11334;36.986;-121.936;2023-06-22T05:32:48;101099.19;;;18.57;65.21
22333;BME280;11334;36.986;-121.936;2023-06-22T05:35:14;101101.25;;;18.55;65.84
22333;BME280;11334;36.986;-121.936;2023-06-22T05:37:40;101101.63;;;18.52;65.74
22333;BME280;11334;36.986;-121.936;2023-06-22T05:40:07;101086.72;;;18.43;65.52
22333;BME280;11334;36.986;-121.936;2023-06-22T05:42:35;101098.06;;;18.38;66.36
22333;BME280;11334;36.986;-121.936;2023-06-22T05:45:01;101099.28;;;18.36;66.26
22333;BME280;11334;36.986;-121.936;2023-06-22T05:47:27;101101.25;;;18.21;67.21
22333;BME280;11334;36.986;-121.936;2023-06-22T05:49:54;101095.66;;;18.16;67.20
22333;BME280;11334;36.986;-121.936;2023-06-22T05:52:20;101070.81;;;18.08;67.29
22333;BME280;11334;36.986;-121.936;2023-06-22T05:54:46;101098.13;;;18.18;67.39
22333;BME280;11334;36.986;-121.936;2023-06-22T05:57:12;101101.38;;;18.13;67.88
22333;BME280;11334;36.986;-121.936;2023-06-22T05:59:39;101090.88;;;18.12;67.80
22333;BME280;11334;36.986;-121.936;2023-06-22T06:02:05;101090.13;;;17.97;68.44
22333;BME280;11334;36.986;-121.936;2023-06-22T06:04:31;101092.41;;;18.00;68.53
22333;BME280;11334;36.986;-121.936;2023-06-22T06:06:57;101096.69;;;17.95;68.92
22333;BME280;11334;36.986;-121.936;2023-06-22T06:09:24;101094.41;;;17.92;68.82
22333;BME280;11334;36.986;-121.936;2023-06-22T06:11:50;101083.69;;;17.92;68.83
22333;BME280;11334;36.986;-121.936;2023-06-22T06:14:16;101094.59;;;17.90;68.81
22333;BME280;11334;36.986;-121.936;2023-06-22T06:16:42;101094.16;;;17.87;69.00
22333;BME280;11334;36.986;-121.936;2023-06-22T06:19:09;101094.69;;;17.76;69.43
22333;BME280;11334;36.986;-121.936;2023-06-22T06:21:35;101098.00;;;17.78;69.84
22333;BME280;11334;36.986;-121.936;2023-06-22T06:24:01;101099.66;;;17.79;69.53
22333;BME280;11334;36.986;-121.936;2023-06-22T06:26:28;101095.72;;;17.75;69.61
22333;BME280;11334;36.986;-121.936;2023-06-22T06:28:56;101095.25;;;17.71;70.04
22333;BME280;11334;36.986;-121.936;2023-06-22T06:31:23;101097.06;;;17.65;70.31
22333;BME280;11334;36.986;-121.936;2023-06-22T06:33:49;101090.03;;;17.64;70.35
22333;BME280;11334;36.986;-121.936;2023-06-22T06:36:15;101099.25;;;17.55;70.72
22333;BME280;11334;36.986;-121.936;2023-06-22T06:38:42;101088.28;;;17.50;71.06
22333;BME280;11334;36.986;-121.936;2023-06-22T06:41:08;101083.56;;;17.52;71.10
22333;BME280;11334;36.986;-121.936;2023-06-22T06:43:34;101081.50;;;17.54;71.09
22333;BME280;11334;36.986;-121.936;2023-06-22T06:46:00;101069.53;;;17.50;71.47
22333;BME280;11334;36.986;-121.936;2023-06-22T06:48:28;101077.63;;;17.36;71.79
22333;BME280;11334;36.986;-121.936;2023-06-22T06:50:55;101076.41;;;17.38;72.06
22333;BME280;11334;36.986;-121.936;2023-06-22T06:53:21;101077.81;;;17.34;72.27
22333;BME280;11334;36.986;-121.936;2023-06-22T06:55:47;101077.28;;;17.24;72.29
22333;BME280;11334;36.986;-121.936;2023-06-22T06:58:13;101065.25;;;17.14;73.04
22333;BME280;11334;36.986;-121.936;2023-06-22T07:00:40;101069.59;;;17.15;73.15
22333;BME280;11334;36.986;-121.936;2023-06-22T07:03:07;101076.31;;;17.11;73.07
22333;BME280;11334;36.986;-121.936;2023-06-22T07:05:33;101074.66;;;17.10;73.36
22333;BME280;11334;36.986;-121.936;2023-06-22T07:07:59;101065.91;;;17.02;73.62
22333;BME280;11334;36.986;-121.936;2023-06-22T07:10:25;101057.44;;;16.98;73.93
22333;BME280;11334;36.986;-121.936;2023-06-22T07:12:51;101064.66;;;16.98;73.68
22333;BME280;11334;36.986;-121.936;2023-06-22T07:15:18;101066.84;;;16.94;73.70
22333;BME280;11334;36.986;-121.936;2023-06-22T07:17:44;101054.09;;;16.76;74.39
22333;BME280;11334;36.986;-121.936;2023-06-22T07:20:11;101065.06;;;16.80;74.30
22333;BME280;11334;36.986;-121.936;2023-06-22T07:22:42;101060.38;;;16.68;74.96
22333;BME280;11334;36.986;-121.936;2023-06-22T07:25:10;101067.56;;;16.68;74.83
22333;BME280;11334;36.986;-121.936;2023-06-22T07:27:56;101065.72;;;16.68;74.71
22333;BME280;11334;36.986;-121.936;2023-06-22T07:30:22;101060.94;;;16.64;74.51
22333;BME280;11334;36.986;-121.936;2023-06-22T07:32:48;101063.63;;;16.64;74.59
22333;BME280;11334;36.986;-121.936;2023-06-22T07:35:15;101057.91;;;16.52;74.94
22333;BME280;11334;36.986;-121.936;2023-06-22T07:37:42;101051.19;;;16.56;74.77
22333;BME280;11334;36.986;-121.936;2023-06-22T07:40:09;101043.44;;;16.47;74.96
22333;BME280;11334;36.986;-121.936;2023-06-22T07:42:35;101047.03;;;16.40;75.33
22333;BME280;11334;36.986;-121.936;2023-06-22T07:45:05;101047.59;;;16.35;75.61
22333;BME280;11334;36.986;-121.936;2023-06-22T07:47:34;101046.00;;;16.41;75.36
22333;BME280;11334;36.986;-121.936;2023-06-22T07:50:01;101046.50;;;16.44;75.27
22333;BME280;11334;36.986;-121.936;2023-06-22T07:52:28;101043.16;;;16.42;75.33
22333;BME280;11334;36.986;-121.936;2023-06-22T07:54:55;101040.66;;;16.41;75.49
22333;BME280;11334;36.986;-121.936;2023-06-22T07:57:21;101043.34;;;16.41;75.15
22333;BME280;11334;36.986;-121.936;2023-06-22T07:59:47;101040.88;;;16.39;75.50
22333;BME280;11334;36.986;-121.936;2023-06-22T08:02:13;101043.16;;;16.42;75.68
22333;BME280;11334;36.986;-121.936;2023-06-22T08:04:40;101037.16;;;16.40;75.29
22333;BME280;11334;36.986;-121.936;2023-06-22T08:07:07;101041.69;;;16.40;75.83
22333;BME280;11334;36.986;-121.936;2023-06-22T08:09:33;101037.38;;;16.39;75.83
22333;BME280;11334;36.986;-121.936;2023-06-22T08:12:00;101035.13;;;16.42;76.59
22333;BME280;11334;36.986;-121.936;2023-06-22T08:14:26;101040.59;;;16.34;76.24
22333;BME280;11334;36.986;-121.936;2023-06-22T08:16:53;101037.56;;;16.23;76.82
22333;BME280;11334;36.986;-121.936;2023-06-22T08:19:19;101037.81;;;16.28;77.15
22333;BME280;11334;36.986;-121.936;2023-06-22T08:21:46;101035.34;;;16.26;77.38
22333;BME280;11334;36.986;-121.936;2023-06-22T08:24:12;101039.50;;;16.29;77.48
22333;BME280;11334;36.986;-121.936;2023-06-22T08:26:38;101034.69;;;16.24;77.91
22333;BME280;11334;36.986;-121.936;2023-06-22T08:29:05;101030.81;;;16.27;78.03
22333;BME280;11334;36.986;-121.936;2023-06-22T08:31:31;101035.63;;;16.31;77.73
22333;BME280;11334;36.986;-121.936;2023-06-22T08:34:00;101038.47;;;16.30;77.86
22333;BME280;11334;36.986;-121.936;2023-06-22T08:36:26;101034.81;;;16.31;78.06
22333;BME280;11334;36.986;-121.936;2023-06-22T08:38:58;101034.88;;;16.23;78.04
22333;BME280;11334;36.986;-121.936;2023-06-22T08:41:27;101027.13;;;16.28;78.33
22333;BME280;11334;36.986;-121.936;2023-06-22T08:43:53;101024.44;;;16.28;78.17
22333;BME280;11334;36.986;-121.936;2023-06-22T08:46:19;101032.75;;;16.33;78.31
22333;BME280;11334;36.986;-121.936;2023-06-22T08:48:49;101030.34;;;16.38;78.11
22333;BME280;11334;36.986;-121.936;2023-06-22T08:51:16;101023.78;;;16.40;78.09
22333;BME280;11334;36.986;-121.936;2023-06-22T08:53:42;101023.78;;;16.40;78.35
22333;BME280;11334;36.986;-121.936;2023-06-22T08:56:10;101029.97;;;16.41;78.28
22333;BME280;11334;36.986;-121.936;2023-06-22T08:58:37;101018.81;;;16.37;78.60
22333;BME280;11334;36.986;-121.936;2023-06-22T09:01:03;101022.78;;;16.41;78.44
22333;BME280;11334;36.986;-121.936;2023-06-22T09:03:30;101028.41;;;16.46;78.35
22333;BME280;11334;36.986;-121.936;2023-06-22T09:05:58;101019.03;;;16.36;78.88
22333;BME280;11334;36.986;-121.936;2023-06-22T09:08:25;101018.81;;;16.37;78.65
22333;BME280;11334;36.986;-121.936;2023-06-22T09:10:51;101016.59;;;16.41;78.70
22333;BME280;11334;36.986;-121.936;2023-06-22T09:13:17;101020.22;;;16.33;78.93
22333;BME280;11334;36.986;-121.936;2023-06-22T09:15:43;101016.41;;;16.42;78.77
22333;BME280;11334;36.986;-121.936;2023-06-22T09:18:13;101023.50;;;16.49;78.58
22333;BME280;11334;36.986;-121.936;2023-06-22T09:20:40;101015.88;;;16.46;78.65
22333;BME280;11334;36.986;-121.936;2023-06-22T09:23:06;101020.94;;;16.42;78.89
22333;BME280;11334;36.986;-121.936;2023-06-22T09:25:32;101014.66;;;16.49;78.54
22333;BME280;11334;36.986;-121.936;2023-06-22T09:27:58;101010.88;;;16.44;78.64
22333;BME280;11334;36.986;-121.936;2023-06-22T09:30:25;101016.94;;;16.52;78.33
22333;BME280;11334;36.986;-121.936;2023-06-22T09:32:51;101015.38;;;16.57;78.03
22333;BME280;11334;36.986;-121.936;2023-06-22T09:35:17;101021.19;;;16.61;77.95
22333;BME280;11334;36.986;-121.936;2023-06-22T09:37:44;101015.63;;;16.62;77.68
22333;BME280;11334;36.986;-121.936;2023-06-22T09:40:11;101012.50;;;16.59;78.01
22333;BME280;11334;36.986;-121.936;2023-06-22T09:42:39;101012.13;;;16.62;77.96
22333;BME280;11334;36.986;-121.936;2023-06-22T09:45:06;101009.56;;;16.54;77.88
22333;BME280;11334;36.986;-121.936;2023-06-22T09:47:32;101011.31;;;16.61;77.30
22333;BME280;11334;36.986;-121.936;2023-06-22T09:49:58;101007.53;;;16.56;77.31
22333;BME280;11334;36.986;-121.936;2023-06-22T09:52:25;101005.88;;;16.55;77.61
22333;BME280;11334;36.986;-121.936;2023-06-22T09:54:52;101009.56;;;16.54;77.67
22333;BME280;11334;36.986;-121.936;2023-06-22T09:57:18;101000.91;;;16.52;78.22
22333;BME280;11334;36.986;-121.936;2023-06-22T09:59:44;100999.53;;;16.56;77.93
22333;BME280;11334;36.986;-121.936;2023-06-22T10:02:10;101006.25;;;16.52;77.98
22333;BME280;11334;36.986;-121.936;2023-06-22T10:04:39;101001.94;;;16.51;77.98
22333;BME280;11334;36.986;-121.936;2023-06-22T10:07:06;100999.03;;;16.52;77.74
22333;BME280;11334;36.986;-121.936;2023-06-22T10:09:32;100995.38;;;16.53;77.88
22333;BME280;11334;36.986;-121.936;2023-06-22T10:11:58;100995.81;;;16.57;78.05
22333;BME280;11334;36.986;-121.936;2023-06-22T10:14:24;100996.25;;;16.60;77.95
22333;BME280;11334;36.986;-121.936;2023-06-22T10:16:52;100985.38;;;16.62;77.85
22333;BME280;11334;36.986;-121.936;2023-06-22T10:19:19;100990.91;;;16.60;77.24
22333;BME280;11334;36.986;-121.936;2023-06-22T10:21:45;100987.78;;;16.57;77.50
22333;BME280;11334;36.986;-121.936;2023-06-22T10:24:11;100997.41;;;16.51;77.98
22333;BME280;11334;36.986;-121.936;2023-06-22T10:26:37;100989.91;;;16.61;77.41
22333;BME280;11334;36.986;-121.936;2023-06-22T10:29:03;100999.53;;;16.56;77.66
22333;BME280;11334;36.986;-121.936;2023-06-22T10:31:30;100990.06;;;16.60;77.40
22333;BME280;11334;36.986;-121.936;2023-06-22T10:33:56;100995.25;;;16.61;77.52
22333;BME280;11334;36.986;-121.936;2023-06-22T10:36:23;100993.56;;;16.60;77.51
22333;BME280;11334;36.986;-121.936;2023-06-22T10:38:49;100999.13;;;16.59;77.87
22333;BME280;11334;36.986;-121.936;2023-06-22T10:41:15;100992.97;;;16.58;77.89
22333;BME280;11334;36.986;-121.936;2023-06-22T10:43:42;100994.59;;;16.59;78.06
22333;BME280;11334;36.986;-121.936;2023-06-22T10:46:09;100979.50;;;16.52;78.01
22333;BME280;11334;36.986;-121.936;2023-06-22T10:48:35;100988.03;;;16.62;77.62
22333;BME280;11334;36.986;-121.936;2023-06-22T10:51:01;100987.66;;;16.65;77.78
22333;BME280;11334;36.986;-121.936;2023-06-22T10:53:28;100995.69;;;16.65;77.75
22333;BME280;11334;36.986;-121.936;2023-06-22T10:55:54;100991.50;;;16.56;78.41
22333;BME280;11334;36.986;-121.936;2023-06-22T10:58:20;100994.78;;;16.58;78.06
22333;BME280;11334;36.986;-121.936;2023-06-22T11:00:46;100997.03;;;16.54;78.34
22333;BME280;11334;36.986;-121.936;2023-06-22T11:03:13;100996.00;;;16.55;78.43
22333;BME280;11334;36.986;-121.936;2023-06-22T11:05:40;100998.03;;;16.53;77.86
22333;BME280;11334;36.986;-121.936;2023-06-22T11:08:07;101008.09;;;16.51;78.46
22333;BME280;11334;36.986;-121.936;2023-06-22T11:10:33;101007.84;;;16.32;79.48
22333;BME280;11334;36.986;-121.936;2023-06-22T11:13:00;101010.00;;;16.22;80.18
22333;BME280;11334;36.986;-121.936;2023-06-22T11:15:28;101005.41;;;16.16;80.22
22333;BME280;11334;36.986;-121.936;2023-06-22T11:17:54;101007.66;;;16.05;80.98
22333;BME280;11334;36.986;-121.936;2023-06-22T11:20:20;101003.34;;;16.04;81.11
22333;BME280;11334;36.986;-121.936;2023-06-22T11:22:46;100998.53;;;16.00;81.26
22333;BME280;11334;36.986;-121.936;2023-06-22T11:25:13;101002.78;;;15.94;81.27
22333;BME280;11334;36.986;-121.936;2023-06-22T11:27:39;101003.16;;;15.91;81.79
22333;BME280;11334;36.986;-121.936;2023-06-22T11:30:06;100989.06;;;15.97;81.58
22333;BME280;11334;36.986;-121.936;2023-06-22T11:32:33;100991.56;;;15.99;81.55
22333;BME280;11334;36.986;-121.936;2023-06-22T11:34:59;100991.19;;;16.02;81.62
22333;BME280;11334;36.986;-121.936;2023-06-22T11:37:25;100990.53;;;16.00;81.34
22333;BME280;11334;36.986;-121.936;2023-06-22T11:39:52;101002.78;;;15.94;82.28
22333;BME280;11334;36.986;-121.936;2023-06-22T11:42:20;100993.09;;;15.93;81.71
22333;BME280;11334;36.986;-121.936;2023-06-22T11:44:49;100987.59;;;15.95;81.53
22333;BME280;11334;36.986;-121.936;2023-06-22T11:47:15;100991.34;;;15.86;82.03
22333;BME280;11334;36.986;-121.936;2023-06-22T11:49:42;100986.19;;;15.84;82.34
22333;BME280;11334;36.986;-121.936;2023-06-22T11:52:08;100995.41;;;15.82;82.75
22333;BME280;11334;36.986;-121.936;2023-06-22T11:54:34;100991.00;;;15.89;82.57
22333;BME280;11334;36.986;-121.936;2023-06-22T11:57:00;100986.22;;;15.99;82.61
22333;BME280;11334;36.986;-121.936;2023-06-22T11:59:26;100988.50;;;16.02;82.59
22333;BME280;11334;36.986;-121.936;2023-06-22T12:01:53;100993.03;;;16.01;82.25
22333;BME280;11334;36.986;-121.936;2023-06-22T12:04:19;100998.00;;;16.04;82.01
22333;BME280;11334;36.986;-121.936;2023-06-22T12:06:46;101000.84;;;16.03;81.84
22333;BME280;11334;36.986;-121.936;2023-06-22T12:09:13;100986.94;;;15.93;81.52
22333;BME280;11334;36.986;-121.936;2023-06-22T12:11:39;100992.16;;;16.01;81.71
22333;BME280;11334;36.986;-121.936;2023-06-22T12:14:06;100991.56;;;15.99;81.34
22333;BME280;11334;36.986;-121.936;2023-06-22T12:16:32;100996.69;;;16.00;81.19
22333;BME280;11334;36.986;-121.936;2023-06-22T12:18:58;101004.00;;;15.92;81.97
22333;BME280;11334;36.986;-121.936;2023-06-22T12:21:24;100996.41;;;15.95;81.48
22333;BME280;11334;36.986;-121.936;2023-06-22T12:23:51;101003.22;;;15.83;82.00
22333;BME280;11334;36.986;-121.936;2023-06-22T12:26:17;101002.03;;;15.86;82.02
22333;BME280;11334;36.986;-121.936;2023-06-22T12:28:43;101013.47;;;15.80;81.96